createdAt,value
2022-10-03T00:00:14.619Z,96337.84
2022-10-03T00:03:10.173Z,96346.66
2022-10-03T00:05:44.883Z,96339.22
2022-10-03T00:08:18.570Z,96341.88
2022-10-03T00:10:55.000Z,96348.28
2022-10-03T00:13:26.640Z,96343.19
2022-10-03T00:16:03.224Z,96357.34
2022-10-03T00:18:37.321Z,96357.09
2022-10-03T00:21:15.614Z,96365.69
2022-10-03T00:23:47.420Z,96371.03
2022-10-03T00:26:28.497Z,96373.44
2022-10-03T00:29:15.028Z,96371.59
2022-10-03T00:31:47.724Z,96376.94
2022-10-03T00:34:21.556Z,96376.66
2022-10-03T00:36:52.240Z,96380.13
2022-10-03T00:39:37.779Z,96390.00
2022-10-03T00:42:44.630Z,96391.09
2022-10-03T00:45:37.587Z,96392.97
2022-10-03T00:48:47.903Z,96397.50
2022-10-03T00:51:24.240Z,96395.06
2022-10-03T00:53:58.419Z,96392.63
2022-10-03T00:56:35.421Z,96399.84
2022-10-03T00:59:15.147Z,96401.94
2022-10-03T01:01:45.541Z,96397.41
2022-10-03T01:04:34.773Z,96404.59
2022-10-03T01:07:07.876Z,96403.81
2022-10-03T01:09:46.429Z,96400.31
2022-10-03T01:12:22.867Z,96394.69
2022-10-03T01:15:11.522Z,96402.69
2022-10-03T01:17:48.324Z,96406.41
2022-10-03T01:20:29.999Z,96407.22
2022-10-03T01:23:19.511Z,96406.41
2022-10-03T01:25:51.297Z,96408.19
2022-10-03T01:29:00.790Z,96408.47
2022-10-03T01:31:31.877Z,96407.66
2022-10-03T01:34:02.655Z,96414.84
2022-10-03T01:36:33.469Z,96410.31
2022-10-03T01:39:03.590Z,96412.47
2022-10-03T01:41:46.861Z,96418.06
2022-10-03T01:44:19.739Z,96415.66
2022-10-03T01:46:49.078Z,96419.38
2022-10-03T01:49:20.542Z,96414.03
2022-10-03T01:51:53.377Z,96412.19
2022-10-03T01:54:29.469Z,96425.78
2022-10-03T01:56:59.028Z,96413.16
2022-10-03T01:59:34.968Z,96421.16
2022-10-03T02:02:05.012Z,96424.41
2022-10-03T02:04:38.897Z,96422.22
2022-10-03T02:07:09.335Z,96425.97
2022-10-03T02:09:40.635Z,96422.72
2022-10-03T02:12:14.418Z,96420.03
2022-10-03T02:14:48.835Z,96430.72
2022-10-03T02:17:24.470Z,96432.59
2022-10-03T02:19:56.859Z,96421.91
2022-10-03T02:22:33.012Z,96430.72
2022-10-03T02:25:20.805Z,96432.34
2022-10-03T02:28:15.160Z,96432.88
2022-10-03T02:30:55.550Z,96432.88
2022-10-03T02:33:38.547Z,96430.72
2022-10-03T02:36:27.310Z,96432.88
2022-10-03T02:39:39.961Z,96422.97
2022-10-03T02:42:40.125Z,96427.47
2022-10-03T02:45:39.854Z,96430.97
2022-10-03T02:48:33.568Z,96439.78
2022-10-03T02:51:33.532Z,96440.84
2022-10-03T02:54:39.557Z,96445.69
2022-10-03T02:57:39.866Z,96450.22
2022-10-03T03:00:10.546Z,96449.19
2022-10-03T03:03:33.292Z,96459.59
2022-10-03T03:06:31.281Z,96454.56
2022-10-03T03:09:30.610Z,96459.69
2022-10-03T03:12:29.832Z,96458.06
2022-10-03T03:15:28.507Z,96453.53
2022-10-03T03:18:00.139Z,96455.38
2022-10-03T03:20:45.073Z,96452.47
2022-10-03T03:23:26.185Z,96454.56
2022-10-03T03:26:15.367Z,96462.59
2022-10-03T03:28:47.070Z,96455.38
2022-10-03T03:31:16.217Z,96461.78
2022-10-03T03:33:53.495Z,96458.28
2022-10-03T03:36:26.985Z,96462.59
2022-10-03T03:39:00.729Z,96457.00
2022-10-03T03:41:38.613Z,96466.06
2022-10-03T03:44:15.327Z,96462.59
2022-10-03T03:46:50.276Z,96472.78
2022-10-03T03:49:31.268Z,96469.31
2022-10-03T03:52:08.753Z,96470.94
2022-10-03T03:54:50.670Z,96471.97
2022-10-03T03:57:26.346Z,96484.28
2022-10-03T04:00:07.612Z,96481.59
2022-10-03T04:02:47.026Z,96484.28
2022-10-03T04:05:21.730Z,96488.00
2022-10-03T04:07:58.587Z,96495.78
2022-10-03T04:10:38.833Z,96487.75
2022-10-03T04:13:47.852Z,96479.75
2022-10-03T04:16:43.222Z,96488.81
2022-10-03T04:19:13.702Z,96492.06
2022-10-03T04:21:57.021Z,96498.16
2022-10-03T04:24:48.076Z,96490.16
2022-10-03T04:27:26.562Z,96497.13
2022-10-03T04:30:00.884Z,96499.78
2022-10-03T04:32:46.805Z,96489.38
2022-10-03T04:35:26.420Z,96494.38
2022-10-03T04:37:57.807Z,96489.03
2022-10-03T04:40:31.818Z,96491.47
2022-10-03T04:43:06.075Z,96484.28
2022-10-03T04:45:47.512Z,96496.81
2022-10-03T04:48:17.822Z,96500.31
2022-10-03T04:50:47.225Z,96499.97
2022-10-03T04:53:21.159Z,96490.56
2022-10-03T04:55:50.155Z,96499.09
2022-10-03T04:58:27.459Z,96497.72
2022-10-03T05:01:01.007Z,96486.47
2022-10-03T05:03:35.018Z,96499.00
2022-10-03T05:06:06.137Z,96496.91
2022-10-03T05:08:38.807Z,96492.59
2022-10-03T05:11:14.198Z,96492.38
2022-10-03T05:13:56.094Z,96496.31
2022-10-03T05:16:30.280Z,96491.78
2022-10-03T05:19:02.538Z,96496.09
2022-10-03T05:21:34.839Z,96495.28
2022-10-03T05:24:05.820Z,96492.03
2022-10-03T05:26:45.166Z,96501.09
2022-10-03T05:29:20.843Z,96493.66
2022-10-03T05:31:53.195Z,96504.34
2022-10-03T05:34:27.895Z,96503.03
2022-10-03T05:37:07.777Z,96502.22
2022-10-03T05:39:42.244Z,96506.78
2022-10-03T05:42:23.737Z,96510.47
2022-10-03T05:44:59.788Z,96520.13
2022-10-03T05:47:49.226Z,96525.22
2022-10-03T05:50:43.397Z,96529.28
2022-10-03T05:53:42.570Z,96525.53
2022-10-03T05:56:12.170Z,96538.09
2022-10-03T05:59:02.745Z,96539.44
2022-10-03T06:01:56.287Z,96545.34
2022-10-03T06:04:34.360Z,96542.69
2022-10-03T06:07:09.298Z,96543.25
2022-10-03T06:09:58.195Z,96542.22
2022-10-03T06:12:28.190Z,96535.81
2022-10-03T06:15:19.413Z,96543.91
2022-10-03T06:17:58.668Z,96550.88
2022-10-03T06:20:41.497Z,96548.25
2022-10-03T06:23:48.622Z,96555.22
2022-10-03T06:26:45.707Z,96556.59
2022-10-03T06:29:40.823Z,96549.75
2022-10-03T06:32:46.208Z,96564.38
2022-10-03T06:35:48.458Z,96560.97
2022-10-03T06:38:52.204Z,96571.16
2022-10-03T06:41:42.910Z,96563.97
2022-10-03T06:44:22.225Z,96569.66
2022-10-03T06:47:23.278Z,96573.44
2022-10-03T06:50:14.080Z,96580.97
2022-10-03T06:53:07.902Z,96572.47
2022-10-03T06:56:12.470Z,96581.03
2022-10-03T06:59:10.289Z,96583.16
2022-10-03T07:01:59.629Z,96584.50
2022-10-03T07:04:53.011Z,96585.09
2022-10-03T07:07:45.868Z,96593.75
2022-10-03T07:10:23.020Z,96596.50
2022-10-03T07:13:21.172Z,96591.97
2022-10-03T07:16:26.480Z,96596.56
2022-10-03T07:19:26.898Z,96604.56
2022-10-03T07:22:33.460Z,96603.22
2022-10-03T07:25:29.946Z,96611.78
2022-10-03T07:28:05.794Z,96617.47
2022-10-03T07:30:37.381Z,96616.47
2022-10-03T07:33:27.874Z,96612.84
2022-10-03T07:36:36.408Z,96616.38
2022-10-03T07:39:31.558Z,96618.56
2022-10-03T07:42:08.782Z,96623.97
2022-10-03T07:45:20.834Z,96627.78
2022-10-03T07:48:13.473Z,96632.56
2022-10-03T07:51:01.217Z,96638.50
2022-10-03T07:54:06.100Z,96637.44
2022-10-03T07:57:06.738Z,96637.91
2022-10-03T08:00:09.662Z,96650.00
2022-10-03T08:03:16.605Z,96649.03
2022-10-03T08:05:51.179Z,96649.59
2022-10-03T08:08:42.446Z,96651.78
2022-10-03T08:11:37.849Z,96650.50
2022-10-03T08:14:18.235Z,96655.03
2022-10-03T08:17:17.617Z,96644.63
2022-10-03T08:20:16.504Z,96643.91
2022-10-03T08:22:50.738Z,96647.94
2022-10-03T08:25:29.132Z,96651.41
2022-10-03T08:28:14.468Z,96647.69
2022-10-03T08:30:53.481Z,96650.44
2022-10-03T08:33:32.199Z,96644.84
2022-10-03T08:36:50.641Z,96649.13
2022-10-03T08:39:28.843Z,96655.00
2022-10-03T08:42:34.149Z,96649.41
2022-10-03T08:45:18.946Z,96653.94
2022-10-03T08:48:03.205Z,96649.25
2022-10-03T08:50:46.870Z,96659.97
2022-10-03T08:53:51.030Z,96661.63
2022-10-03T08:56:20.410Z,96648.75
2022-10-03T08:59:18.397Z,96654.00
2022-10-03T09:02:28.747Z,96645.75
2022-10-03T09:05:24.206Z,96644.50
2022-10-03T09:08:20.315Z,96646.00
2022-10-03T09:11:02.475Z,96653.44
2022-10-03T09:14:00.724Z,96645.91
2022-10-03T09:16:52.749Z,96648.19
2022-10-03T09:19:38.695Z,96650.00
2022-10-03T09:22:31.807Z,96657.16
2022-10-03T09:25:15.167Z,96653.25
2022-10-03T09:27:47.998Z,96654.84
2022-10-03T09:30:38.493Z,96653.25
2022-10-03T09:33:24.732Z,96649.81
2022-10-03T09:36:01.714Z,96644.31
2022-10-03T09:38:45.350Z,96666.66
2022-10-03T09:41:29.078Z,96657.16
2022-10-03T09:44:09.191Z,96667.69
2022-10-03T09:47:28.302Z,96670.13
2022-10-03T09:50:33.491Z,96669.13
2022-10-03T09:53:20.695Z,96670.06
2022-10-03T09:56:02.774Z,96667.84
2022-10-03T09:58:46.583Z,96670.84
2022-10-03T10:01:20.016Z,96672.03
2022-10-03T10:04:50.276Z,96666.38
2022-10-03T10:07:43.241Z,96672.75
2022-10-03T10:10:54.177Z,96672.19
2022-10-03T10:14:10.490Z,96680.00
2022-10-03T10:17:09.208Z,96679.66
2022-10-03T10:19:46.331Z,96686.13
2022-10-03T10:23:02.998Z,96681.56
2022-10-03T10:25:43.495Z,96675.59
2022-10-03T10:28:34.956Z,96676.38
2022-10-03T10:31:32.693Z,96669.69
2022-10-03T10:34:25.091Z,96665.59
2022-10-03T10:37:35.366Z,96661.31
2022-10-03T10:40:38.843Z,96670.44
2022-10-03T10:43:40.630Z,96672.47
2022-10-03T10:46:32.523Z,96674.84
2022-10-03T10:49:28.051Z,96671.59
2022-10-03T10:52:25.454Z,96677.78
2022-10-03T10:55:19.794Z,96672.94
2022-10-03T10:58:27.477Z,96678.50
2022-10-03T11:01:11.090Z,96678.41
2022-10-03T11:04:15.577Z,96685.31
2022-10-03T11:07:20.786Z,96687.59
2022-10-03T11:09:54.648Z,96680.31
2022-10-03T11:13:14.238Z,96673.38
2022-10-03T11:16:35.376Z,96673.00
2022-10-03T11:19:48.010Z,96672.91
2022-10-03T11:22:46.132Z,96674.78
2022-10-03T11:25:55.160Z,96674.75
2022-10-03T11:28:48.174Z,96675.53
2022-10-03T11:31:50.804Z,96678.78
2022-10-03T11:35:02.007Z,96677.19
2022-10-03T11:37:38.220Z,96672.31
2022-10-03T11:40:20.603Z,96676.09
2022-10-03T11:42:56.867Z,96671.00
2022-10-03T11:45:29.846Z,96674.22
2022-10-03T11:48:03.827Z,96679.88
2022-10-03T11:50:39.219Z,96683.06
2022-10-03T11:53:15.033Z,96673.94
2022-10-03T11:55:44.140Z,96680.41
2022-10-03T11:58:22.091Z,96671.00
2022-10-03T12:00:55.162Z,96678.25
2022-10-03T12:03:26.458Z,96682.28
2022-10-03T12:06:16.447Z,96675.84
2022-10-03T12:08:58.326Z,96668.84
2022-10-03T12:11:28.351Z,96666.41
2022-10-03T12:14:10.978Z,96671.00
2022-10-03T12:16:57.015Z,96660.25
2022-10-03T12:19:31.134Z,96656.75
2022-10-03T12:22:00.753Z,96660.25
2022-10-03T12:24:30.586Z,96660.00
2022-10-03T12:27:02.599Z,96658.34
2022-10-03T12:29:32.462Z,96663.16
2022-10-03T12:32:20.072Z,96663.41
2022-10-03T12:34:51.573Z,96666.00
2022-10-03T12:37:35.425Z,96665.50
2022-10-03T12:40:07.459Z,96666.78
2022-10-03T12:42:36.842Z,96665.50
2022-10-03T12:45:06.553Z,96669.00
2022-10-03T12:47:55.401Z,96669.03
2022-10-03T12:50:32.226Z,96666.09
2022-10-03T12:53:08.615Z,96675.25
2022-10-03T12:55:38.622Z,96667.75
2022-10-03T12:58:07.619Z,96669.63
2022-10-03T13:00:36.743Z,96663.75
2022-10-03T13:03:23.263Z,96660.50
2022-10-03T13:06:33.879Z,96663.72
2022-10-03T13:09:17.654Z,96674.44
2022-10-03T13:11:59.353Z,96673.34
2022-10-03T13:14:33.065Z,96667.16
2022-10-03T13:17:05.845Z,96666.06
2022-10-03T13:19:37.935Z,96663.13
2022-10-03T13:22:12.947Z,96668.25
2022-10-03T13:24:42.179Z,96667.47
2022-10-03T13:27:33.447Z,96662.06
2022-10-03T13:30:06.491Z,96664.22
2022-10-03T13:32:35.440Z,96661.25
2022-10-03T13:35:36.109Z,96656.88
2022-10-03T13:38:31.928Z,96667.84
2022-10-03T13:41:04.662Z,96658.16
2022-10-03T13:43:36.563Z,96657.34
2022-10-03T13:46:06.325Z,96661.91
2022-10-03T13:48:34.880Z,96655.75
2022-10-03T13:51:05.581Z,96660.31
2022-10-03T13:54:00.237Z,96659.78
2022-10-03T13:56:46.681Z,96656.06
2022-10-03T13:59:25.333Z,96662.88
2022-10-03T14:01:56.772Z,96658.31
2022-10-03T14:04:40.235Z,96659.69
2022-10-03T14:07:11.690Z,96663.13
2022-10-03T14:09:52.450Z,96666.88
2022-10-03T14:12:43.645Z,96666.28
2022-10-03T14:15:25.665Z,96667.06
2022-10-03T14:17:56.980Z,96668.44
2022-10-03T14:20:28.168Z,96667.88
2022-10-03T14:23:02.134Z,96668.44
2022-10-03T14:25:32.731Z,96662.25
2022-10-03T14:28:02.704Z,96657.44
2022-10-03T14:30:35.214Z,96652.31
2022-10-03T14:33:10.961Z,96660.13
2022-10-03T14:35:41.695Z,96649.06
2022-10-03T14:38:58.789Z,96662.25
2022-10-03T14:41:41.709Z,96662.78
2022-10-03T14:44:13.280Z,96657.34
2022-10-03T14:46:48.050Z,96654.66
2022-10-03T14:49:47.170Z,96652.25
2022-10-03T14:52:10.667Z,96658.69
2022-10-03T14:54:39.950Z,96658.66
2022-10-03T14:57:15.929Z,96649.50
2022-10-03T14:59:44.043Z,96652.19
2022-10-03T15:02:28.640Z,96665.06
2022-10-03T15:04:57.435Z,96665.88
2022-10-03T15:07:35.971Z,96664.25
2022-10-03T15:10:04.795Z,96651.38
2022-10-03T15:12:33.923Z,96645.72
2022-10-03T15:15:03.537Z,96651.91
2022-10-03T15:17:34.271Z,96645.19
2022-10-03T15:20:02.989Z,96640.09
2022-10-03T15:22:33.710Z,96644.88
2022-10-03T15:25:06.062Z,96637.59
2022-10-03T15:27:34.643Z,96645.63
2022-10-03T15:30:03.759Z,96639.19
2022-10-03T15:32:36.123Z,96634.06
2022-10-03T15:35:04.350Z,96639.41
2022-10-03T15:37:35.703Z,96637.25
2022-10-03T15:40:07.624Z,96647.13
2022-10-03T15:42:45.532Z,96646.31
2022-10-03T15:45:19.478Z,96646.81
2022-10-03T15:47:49.402Z,96639.81
2022-10-03T15:50:20.446Z,96638.44
2022-10-03T15:52:52.414Z,96637.38
2022-10-03T15:55:21.982Z,96648.34
2022-10-03T15:57:52.157Z,96641.88
2022-10-03T16:00:21.581Z,96639.72
2022-10-03T16:02:54.015Z,96638.56
2022-10-03T16:05:23.179Z,96638.28
2022-10-03T16:07:56.347Z,96637.47
2022-10-03T16:10:26.146Z,96645.22
2022-10-03T16:12:58.641Z,96648.44
2022-10-03T16:15:29.644Z,96640.88
2022-10-03T16:18:00.861Z,96639.22
2022-10-03T16:20:30.842Z,96636.22
2022-10-03T16:22:59.408Z,96641.28
2022-10-03T16:25:28.832Z,96644.19
2022-10-03T16:27:58.958Z,96637.69
2022-10-03T16:30:28.520Z,96639.28
2022-10-03T16:33:03.223Z,96642.47
2022-10-03T16:35:36.784Z,96637.06
2022-10-03T16:38:08.148Z,96638.06
2022-10-03T16:40:37.925Z,96632.94
2022-10-03T16:43:09.790Z,96634.19
2022-10-03T16:45:41.962Z,96637.63
2022-10-03T16:48:38.347Z,96634.91
2022-10-03T16:51:07.702Z,96633.53
2022-10-03T16:53:36.257Z,96631.66
2022-10-03T16:56:06.375Z,96636.22
2022-10-03T16:58:34.955Z,96644.22
2022-10-03T17:03:56.351Z,96640.91
2022-10-03T17:06:27.131Z,96640.34
2022-10-03T17:08:55.534Z,96640.59
2022-10-03T17:11:26.234Z,96644.59
2022-10-03T17:13:55.542Z,96646.69
2022-10-03T17:16:28.404Z,96647.19
2022-10-03T17:19:08.377Z,96643.97
2022-10-03T17:21:37.703Z,96640.50
2022-10-03T17:24:07.932Z,96642.34
2022-10-03T17:26:38.578Z,96638.31
2022-10-03T17:29:12.526Z,96640.94
2022-10-03T17:31:42.616Z,96639.31
2022-10-03T17:34:13.843Z,96647.59
2022-10-03T17:37:12.818Z,96644.59
2022-10-03T17:39:49.317Z,96641.91
2022-10-03T17:42:26.088Z,96643.28
2022-10-03T17:44:59.694Z,96643.06
2022-10-03T17:47:35.305Z,96632.09
2022-10-03T17:50:07.696Z,96634.50
2022-10-03T17:52:37.371Z,96634.50
2022-10-03T17:55:06.138Z,96636.94
2022-10-03T17:57:37.505Z,96634.50
2022-10-03T18:00:08.897Z,96644.97
2022-10-03T18:02:38.511Z,96644.41
2022-10-03T18:05:15.060Z,96640.13
2022-10-03T18:07:44.348Z,96641.69
2022-10-03T18:10:23.249Z,96638.75
2022-10-03T18:12:53.860Z,96644.09
2022-10-03T18:15:51.922Z,96640.38
2022-10-03T18:19:01.809Z,96639.00
2022-10-03T18:21:40.915Z,96642.97
2022-10-03T18:24:44.318Z,96643.22
2022-10-03T18:27:52.244Z,96639.72
2022-10-03T18:30:21.114Z,96642.13
2022-10-03T18:32:49.224Z,96647.97
2022-10-03T18:35:19.707Z,96643.16
2022-10-03T18:37:55.010Z,96651.75
2022-10-03T18:40:26.709Z,96648.56
2022-10-03T18:42:54.992Z,96644.03
2022-10-03T18:45:27.279Z,96646.16
2022-10-03T18:47:57.350Z,96651.69
2022-10-03T18:50:28.136Z,96653.31
2022-10-03T18:53:00.504Z,96650.63
2022-10-03T18:55:29.880Z,96645.53
2022-10-03T18:58:01.722Z,96650.06
2022-10-03T19:00:31.145Z,96646.84
2022-10-03T19:03:00.479Z,96646.53
2022-10-03T19:05:30.482Z,96648.88
2022-10-03T19:08:04.073Z,96655.28
2022-10-03T19:10:38.729Z,96653.13
2022-10-03T19:13:14.751Z,96655.56
2022-10-03T19:15:53.658Z,96647.25
2022-10-03T19:18:23.634Z,96650.22
2022-10-03T19:20:52.436Z,96653.41
2022-10-03T19:23:26.865Z,96655.28
2022-10-03T19:25:57.729Z,96654.81
2022-10-03T19:28:28.729Z,96650.50
2022-10-03T19:31:02.577Z,96651.56
2022-10-03T19:33:31.196Z,96650.75
2022-10-03T19:36:01.568Z,96652.06
2022-10-03T19:38:32.664Z,96653.63
2022-10-03T19:41:01.869Z,96655.47
2022-10-03T19:43:40.009Z,96648.00
2022-10-03T19:46:25.757Z,96652.56
2022-10-03T19:49:04.759Z,96644.53
2022-10-03T19:51:32.836Z,96656.63
2022-10-03T19:54:03.321Z,96652.88
2022-10-03T19:56:32.786Z,96655.56
2022-10-03T19:59:02.772Z,96660.91
2022-10-03T20:01:35.912Z,96657.97
2022-10-03T20:04:04.149Z,96660.09
2022-10-03T20:06:33.342Z,96668.13
2022-10-03T20:09:03.607Z,96663.25
2022-10-03T20:11:41.921Z,96661.06
2022-10-03T20:14:14.492Z,96666.41
2022-10-03T20:16:43.685Z,96654.09
2022-10-03T20:19:13.542Z,96652.75
2022-10-03T20:21:41.820Z,96652.19
2022-10-03T20:24:14.348Z,96653.00
2022-10-03T20:26:45.527Z,96652.41
2022-10-03T20:29:20.147Z,96655.66
2022-10-03T20:31:48.578Z,96650.56
2022-10-03T20:34:17.505Z,96658.00
2022-10-03T20:36:47.517Z,96660.13
2022-10-03T20:39:18.337Z,96656.91
2022-10-03T20:42:01.233Z,96649.13
2022-10-03T20:45:03.374Z,96649.13
2022-10-03T20:47:41.165Z,96651.78
2022-10-03T20:50:11.971Z,96648.31
2022-10-03T20:52:40.105Z,96650.66
2022-10-03T20:55:09.815Z,96648.50
2022-10-03T20:57:39.181Z,96650.34
2022-10-03T21:00:10.434Z,96645.22
2022-10-03T21:02:40.019Z,96652.44
2022-10-03T21:05:12.544Z,96650.00
2022-10-03T21:07:42.616Z,96646.28
2022-10-03T21:10:19.170Z,96649.19
2022-10-03T21:12:48.886Z,96648.94
2022-10-03T21:15:25.058Z,96649.44
2022-10-03T21:17:55.072Z,96646.50
2022-10-03T21:20:24.691Z,96651.88
2022-10-03T21:22:53.488Z,96637.69
2022-10-03T21:25:25.467Z,96642.22
2022-10-03T21:27:54.999Z,96646.75
2022-10-03T21:30:24.035Z,96643.28
2022-10-03T21:33:00.280Z,96639.53
2022-10-03T21:35:29.676Z,96639.78
2022-10-03T21:38:05.352Z,96641.09
2022-10-03T21:40:59.308Z,96636.28
2022-10-03T21:43:35.803Z,96630.94
2022-10-03T21:46:08.329Z,96629.09
2022-10-03T21:48:39.510Z,96626.41
2022-10-03T21:51:14.269Z,96627.47
2022-10-03T21:53:45.437Z,96626.13
2022-10-03T21:56:22.807Z,96625.31
2022-10-03T21:59:07.794Z,96626.66
2022-10-03T22:01:37.997Z,96624.25
2022-10-03T22:04:07.930Z,96620.75
2022-10-03T22:06:38.562Z,96624.50
2022-10-03T22:09:12.434Z,96619.38
2022-10-03T22:11:44.214Z,96622.06
2022-10-03T22:14:18.707Z,96619.38
2022-10-03T22:16:50.163Z,96619.63
2022-10-03T22:19:21.173Z,96619.63
2022-10-03T22:22:07.235Z,96622.88
2022-10-03T22:24:40.809Z,96618.34
2022-10-03T22:27:12.835Z,96614.84
2022-10-03T22:29:45.136Z,96613.22
2022-10-03T22:32:16.562Z,96615.91
2022-10-03T22:34:46.481Z,96607.06
2022-10-03T22:37:14.774Z,96612.41
2022-10-03T22:39:43.061Z,96607.56
2022-10-03T22:42:14.115Z,96609.16
2022-10-03T22:44:44.659Z,96609.97
2022-10-03T22:47:14.943Z,96600.09
2022-10-03T22:49:44.174Z,96598.22
2022-10-03T22:52:17.830Z,96595.81
2022-10-03T22:54:46.008Z,96600.59
2022-10-03T22:57:15.507Z,96598.72
2022-10-03T22:59:44.714Z,96598.72
2022-10-03T23:02:12.836Z,96604.63
2022-10-03T23:04:44.470Z,96599.53
2022-10-03T23:07:33.669Z,96589.88
2022-10-03T23:10:08.010Z,96599.53
2022-10-03T23:12:39.762Z,96595.22
2022-10-03T23:15:08.743Z,96598.19
2022-10-03T23:18:00.541Z,96587.72
2022-10-03T23:20:43.027Z,96589.34
2022-10-03T23:23:14.482Z,96589.06
2022-10-03T23:25:46.308Z,96585.63
2022-10-03T23:28:19.449Z,96593.63
2022-10-03T23:30:49.131Z,96588.53
2022-10-03T23:33:18.626Z,96590.41
2022-10-03T23:35:46.720Z,96592.03
2022-10-03T23:38:52.073Z,96590.41
2022-10-03T23:41:31.214Z,96591.44
2022-10-03T23:44:00.734Z,96588.78
2022-10-03T23:46:29.994Z,96592.50
2022-10-03T23:48:59.595Z,96596.78
2022-10-03T23:51:29.860Z,96593.88
2022-10-03T23:53:58.564Z,96585.06
2022-10-03T23:56:30.235Z,96588.78
2022-10-03T23:59:09.948Z,96593.31
